Terminal Aerodrome Forecast
Issued by NWS

Home | Current Version | Previous Version | Text Only | Print | Product List | Glossary On
Versions: 1 2 3 4 5 6 7 8 9 10 11 12
000
FTUS42 KGSP 011134
TAFGMU
TAF
KGMU 011134Z 0112/0212 21005KT P6SM BKN150
     FM011700 20007KT P6SM OVC060
     FM012300 17007KT P6SM -SHRA OVC025
     FM020100 17009KT 5SM -SHRA OVC008
     FM020500 18011KT 2SM -SHRA BR OVC008=

USA.gov is the U.S. government's official web portal to all federal, state and local government web resources and services.